Time;durP1;ratioP1;P1;durP2;ratioP2;P2;SDS_P1;SDS_P2;PMS_P1;PMS_P2;Temp;Humidity;BMP_temperature;BMP_pressure;BME280_temperature;BME280_humidity;BME280_pressure;Samples;Min_cycle;Max_cycle;Signal;HPM_P1;HPM_P2
2021/05/02 14:46:36;;;;;;;6.05;3.28;;;17.70;39.00;;;;;;5074648;28;20740;-69
2021/05/02 14:49:02;;;;;;;6.00;4.35;;;17.50;39.70;;;;;;5074777;28;20029;-71
2021/05/02 14:51:29;;;;;;;4.95;3.47;;;17.60;39.40;;;;;;5073708;28;20051;-72
2021/05/02 14:53:55;;;;;;;6.38;4.05;;;17.70;39.50;;;;;;5054591;28;20511;-69
2021/05/02 14:56:21;;;;;;;5.38;3.97;;;17.90;39.70;;;;;;5067960;28;20029;-69
2021/05/02 14:58:47;;;;;;;7.85;4.40;;;18.10;39.80;;;;;;5058233;28;20032;-70
2021/05/02 15:01:13;;;;;;;5.88;3.67;;;18.20;39.30;;;;;;5065455;28;20025;-70
2021/05/02 15:03:39;;;;;;;5.53;4.18;;;18.30;39.20;;;;;;5061706;28;20059;-67
2021/05/02 15:06:05;;;;;;;5.70;3.67;;;18.30;39.00;;;;;;5059399;28;20025;-71
2021/05/02 15:08:31;;;;;;;5.57;4.18;;;18.20;38.70;;;;;;5048131;28;20030;-68
2021/05/02 15:10:56;;;;;;;5.60;4.28;;;18.20;38.80;;;;;;5040057;28;20052;-68
2021/05/02 15:13:22;;;;;;;6.25;4.18;;;18.10;38.60;;;;;;5062536;28;20471;-68
2021/05/02 15:15:48;;;;;;;7.13;5.10;;;18.10;39.00;;;;;;5060962;28;20087;-68
2021/05/02 15:18:14;;;;;;;5.78;4.10;;;18.00;39.20;;;;;;5058487;28;20088;-67
2021/05/02 15:20:40;;;;;;;5.20;3.88;;;18.00;39.50;;;;;;5041395;28;20105;-68
2021/05/02 15:23:06;;;;;;;7.88;4.57;;;18.00;39.70;;;;;;5054090;28;20053;-68
2021/05/02 15:25:32;;;;;;;6.20;4.05;;;18.00;39.70;;;;;;5051159;28;20186;-68
2021/05/02 15:27:57;;;;;;;5.68;4.00;;;18.10;40.00;;;;;;5052879;28;20028;-69
2021/05/02 15:30:23;;;;;;;6.78;4.18;;;18.20;40.20;;;;;;5054009;28;20021;-67
2021/05/02 15:32:49;;;;;;;14.75;11.80;;;18.20;41.10;;;;;;5055174;28;20030;-69
2021/05/02 15:35:15;;;;;;;9.77;6.30;;;18.20;40.20;;;;;;5052636;28;20439;-69
2021/05/02 15:37:41;;;;;;;14.52;9.13;;;18.20;40.40;;;;;;5051090;28;20025;-68
2021/05/02 15:40:08;;;;;;;5.32;4.03;;;18.20;40.40;;;;;;5052511;28;20032;-68
2021/05/02 15:42:34;;;;;;;5.65;3.88;;;18.20;40.40;;;;;;5055781;28;20037;-68
2021/05/02 15:45:00;;;;;;;5.38;3.85;;;18.30;40.70;;;;;;5042832;28;20118;-68
2021/05/02 15:47:26;;;;;;;5.65;4.57;;;18.30;40.80;;;;;;5048996;28;20037;-69
2021/05/02 15:49:53;;;;;;;5.40;3.88;;;18.40;41.00;;;;;;5050487;28;20123;-69
2021/05/02 15:52:19;;;;;;;6.63;4.85;;;18.50;41.10;;;;;;5052209;28;20029;-69
2021/05/02 15:54:45;;;;;;;6.40;4.18;;;18.50;41.00;;;;;;5051265;28;20116;-69
2021/05/02 15:57:10;;;;;;;5.95;4.40;;;18.60;41.20;;;;;;5042776;28;20044;-69
2021/05/02 15:59:36;;;;;;;5.88;4.13;;;18.60;41.10;;;;;;5039615;28;20029;-69
2021/05/02 16:02:02;;;;;;;5.32;4.10;;;18.70;41.10;;;;;;5038258;28;20040;-69
2021/05/02 16:04:28;;;;;;;5.18;3.63;;;18.70;41.10;;;;;;5038229;28;20104;-69
2021/05/02 16:06:54;;;;;;;8.60;5.88;;;18.60;40.90;;;;;;5038434;28;20031;-68
2021/05/02 16:09:20;;;;;;;6.95;4.90;;;18.60;41.00;;;;;;5039881;28;20481;-69
2021/05/02 16:11:46;;;;;;;5.57;4.43;;;18.60;41.20;;;;;;5038753;28;20102;-71
2021/05/02 16:14:13;;;;;;;4.90;3.95;;;18.60;41.10;;;;;;5039165;28;20051;-69
2021/05/02 16:16:39;;;;;;;6.32;4.55;;;18.60;41.10;;;;;;5038599;28;20045;-69
2021/05/02 16:19:05;;;;;;;7.40;5.30;;;18.60;41.20;;;;;;5039028;28;20026;-69
2021/05/02 16:21:32;;;;;;;6.53;4.97;;;18.60;41.30;;;;;;5039000;28;20035;-68
2021/05/02 16:23:59;;;;;;;6.25;4.25;;;18.60;41.20;;;;;;5039390;28;20412;-69
2021/05/02 16:26:25;;;;;;;5.20;3.58;;;18.50;41.10;;;;;;5036521;28;20029;-69
2021/05/02 16:28:52;;;;;;;5.25;3.65;;;18.50;41.10;;;;;;5028094;28;20079;-69
2021/05/02 16:31:18;;;;;;;5.20;3.58;;;18.40;41.00;;;;;;5038830;28;20025;-69
2021/05/02 16:33:44;;;;;;;5.47;3.50;;;18.40;41.10;;;;;;5032981;28;20034;-69
2021/05/02 16:36:10;;;;;;;4.60;3.30;;;18.30;41.20;;;;;;5033070;28;20029;-69
2021/05/02 16:38:36;;;;;;;5.57;4.10;;;18.30;41.30;;;;;;5025529;28;20033;-68
2021/05/02 16:41:03;;;;;;;6.03;4.22;;;18.20;41.40;;;;;;5037729;28;20426;-69
2021/05/02 16:43:29;;;;;;;5.10;3.65;;;18.20;41.50;;;;;;5025915;28;20017;-69
2021/05/02 16:45:56;;;;;;;13.70;10.88;;;18.20;41.60;;;;;;5038633;28;20056;-69
2021/05/02 16:48:21;;;;;;;7.95;5.68;;;18.30;41.90;;;;;;5038458;28;20079;-69
2021/05/02 16:50:47;;;;;;;6.85;5.18;;;18.30;41.80;;;;;;5038641;28;20033;-69
2021/05/02 16:53:13;;;;;;;8.35;5.45;;;18.30;41.70;;;;;;5037495;28;20139;-69
2021/05/02 16:55:40;;;;;;;5.53;3.92;;;18.30;41.60;;;;;;5038255;28;20033;-69
2021/05/02 16:58:06;;;;;;;5.20;3.72;;;18.20;41.30;;;;;;5039034;28;20025;-69
2021/05/02 17:00:32;;;;;;;4.97;3.78;;;18.10;41.30;;;;;;5037260;28;20067;-68
2021/05/02 17:02:58;;;;;;;5.32;3.92;;;18.10;41.60;;;;;;5037509;28;20017;-69
2021/05/02 17:05:24;;;;;;;5.35;3.75;;;18.00;41.50;;;;;;5038931;28;20030;-69
2021/05/02 17:07:50;;;;;;;4.95;3.50;;;18.00;41.50;;;;;;5037627;28;20544;-69
2021/05/02 17:10:17;;;;;;;5.63;3.80;;;18.00;41.60;;;;;;5038092;28;20388;-69
2021/05/02 17:12:43;;;;;;;4.72;3.40;;;18.00;41.80;;;;;;5037624;28;20037;-69
2021/05/02 17:15:11;;;;;;;4.25;3.10;;;18.10;41.90;;;;;;5037789;28;20037;-69
2021/05/02 17:17:42;;;;;;;4.97;3.95;;;18.20;41.90;;;;;;5036306;28;20045;-69
2021/05/02 17:20:09;;;;;;;5.28;3.72;;;18.20;41.80;;;;;;5026589;28;20059;-69
2021/05/02 17:22:35;;;;;;;4.50;3.22;;;18.20;41.80;;;;;;5038352;28;20094;-69
2021/05/02 17:25:03;;;;;;;5.80;3.50;;;18.30;41.80;;;;;;5037615;28;20495;-70
2021/05/02 17:27:28;;;;;;;4.60;3.25;;;18.30;41.80;;;;;;5037910;28;20104;-69
2021/05/02 17:29:54;;;;;;;5.85;3.53;;;18.40;41.80;;;;;;5038380;28;20057;-70
2021/05/02 17:32:20;;;;;;;6.38;4.22;;;18.40;41.70;;;;;;5033242;28;20113;-70
2021/05/02 17:34:46;;;;;;;5.45;3.58;;;18.40;41.60;;;;;;5037995;28;20457;-70
2021/05/02 17:37:11;;;;;;;4.65;3.40;;;18.40;41.50;;;;;;5038177;28;20040;-70
2021/05/02 17:39:38;;;;;;;5.60;3.83;;;18.30;41.30;;;;;;5026886;28;20164;-70
2021/05/02 17:42:04;;;;;;;5.15;3.63;;;18.30;41.50;;;;;;5036879;28;20028;-70
2021/05/02 17:44:30;;;;;;;6.22;3.95;;;18.30;41.30;;;;;;5039106;28;20085;-68
2021/05/02 17:46:56;;;;;;;7.60;5.85;;;18.20;40.90;;;;;;5040415;28;20491;-71
2021/05/02 17:49:30;;;;;;;10.43;8.77;;;18.10;41.00;;;;;;5036289;28;20103;-71
2021/05/02 17:51:58;;;;;;;8.10;6.25;;;18.10;40.90;;;;;;5037785;28;20025;-71
2021/05/02 17:54:23;;;;;;;6.35;4.60;;;18.00;40.90;;;;;;5038135;28;20031;-70
2021/05/02 17:56:49;;;;;;;6.05;4.55;;;18.00;41.00;;;;;;5036117;28;20156;-70
2021/05/02 17:59:16;;;;;;;5.70;4.63;;;17.90;40.70;;;;;;5037763;28;20100;-69
2021/05/02 18:01:42;;;;;;;5.43;4.10;;;17.80;40.80;;;;;;5035917;28;20014;-68
2021/05/02 18:04:10;;;;;;;5.55;4.15;;;17.80;40.80;;;;;;5037781;28;20021;-68
2021/05/02 18:06:36;;;;;;;6.22;4.68;;;17.70;40.80;;;;;;5036668;28;20025;-67
2021/05/02 18:09:03;;;;;;;6.63;4.70;;;17.60;40.80;;;;;;5035304;28;20021;-66
2021/05/02 18:11:30;;;;;;;5.75;4.18;;;17.60;41.00;;;;;;5035802;28;20029;-71
2021/05/02 18:13:56;;;;;;;5.85;4.40;;;17.50;40.90;;;;;;5026061;28;20030;-68
2021/05/02 18:16:22;;;;;;;5.43;3.72;;;17.50;41.10;;;;;;5033830;28;20496;-67
2021/05/02 18:18:48;;;;;;;5.95;4.18;;;17.40;41.10;;;;;;5036968;28;20025;-66
2021/05/02 18:21:14;;;;;;;6.45;4.43;;;17.30;41.10;;;;;;5034378;28;20022;-60
2021/05/02 18:23:40;;;;;;;7.00;4.45;;;17.20;41.20;;;;;;5032896;28;20029;-67
2021/05/02 18:26:06;;;;;;;6.75;5.05;;;17.20;41.40;;;;;;5036589;28;20071;-70
2021/05/02 18:28:32;;;;;;;8.70;5.15;;;17.10;41.30;;;;;;5035108;28;20029;-68
2021/05/02 18:30:58;;;;;;;6.43;4.40;;;16.90;41.40;;;;;;5031410;28;20060;-69
2021/05/02 18:33:24;;;;;;;5.13;3.70;;;16.80;41.80;;;;;;5036796;28;20041;-70
2021/05/02 18:35:50;;;;;;;4.43;3.20;;;16.60;41.80;;;;;;5036465;28;20022;-67
2021/05/02 18:38:15;;;;;;;6.05;4.40;;;16.50;42.20;;;;;;5033437;28;20045;-67
2021/05/02 18:40:41;;;;;;;5.90;3.97;;;16.40;42.50;;;;;;5028104;28;20021;-67
2021/05/02 18:43:08;;;;;;;5.15;3.38;;;16.40;42.80;;;;;;5040192;28;20048;-67
2021/05/02 18:45:35;;;;;;;5.07;3.22;;;16.30;43.20;;;;;;5036988;28;20064;-68
2021/05/02 18:48:02;;;;;;;4.63;3.38;;;16.20;43.50;;;;;;5025434;28;20480;-67
2021/05/02 18:50:28;;;;;;;4.25;3.10;;;16.10;43.80;;;;;;5034646;28;20030;-66
2021/05/02 18:52:54;;;;;;;5.00;3.30;;;16.00;43.90;;;;;;5036851;28;20562;-66
2021/05/02 18:55:20;;;;;;;4.40;2.97;;;15.90;44.30;;;;;;5038671;28;20070;-66
2021/05/02 18:57:46;;;;;;;4.60;3.10;;;15.90;44.80;;;;;;5048761;28;20030;-66
2021/05/02 19:00:12;;;;;;;4.63;3.35;;;15.80;44.60;;;;;;5048487;28;20036;-66
2021/05/02 19:02:40;;;;;;;4.28;2.97;;;15.60;44.90;;;;;;5036760;28;20033;-67
2021/05/02 19:05:07;;;;;;;5.07;3.40;;;15.50;45.10;;;;;;5039393;28;20035;-69
2021/05/02 19:07:33;;;;;;;5.97;4.03;;;15.40;45.30;;;;;;5041900;28;20454;-68
2021/05/02 19:09:58;;;;;;;4.85;3.22;;;15.30;45.60;;;;;;5036150;28;20057;-68
2021/05/02 19:12:24;;;;;;;6.45;3.35;;;15.30;45.80;;;;;;5039137;28;20057;-67
2021/05/02 19:14:50;;;;;;;5.80;3.40;;;15.20;46.00;;;;;;5047722;28;20029;-69
2021/05/02 19:17:16;;;;;;;5.65;3.55;;;15.10;46.00;;;;;;5045533;28;20030;-67
2021/05/02 19:19:41;;;;;;;5.32;4.07;;;15.00;46.40;;;;;;5038498;28;20026;-68
2021/05/02 19:22:07;;;;;;;5.00;3.65;;;14.90;46.50;;;;;;5041537;28;20068;-69
2021/05/02 19:24:33;;;;;;;5.72;4.50;;;14.80;46.50;;;;;;5036092;28;20025;-67
2021/05/02 19:26:59;;;;;;;11.02;8.80;;;14.80;47.00;;;;;;5036424;28;20104;-69
2021/05/02 19:29:25;;;;;;;11.52;9.45;;;14.70;46.90;;;;;;5036033;28;20021;-67
2021/05/02 19:31:51;;;;;;;10.18;7.05;;;14.60;46.90;;;;;;5038404;28;20025;-66
2021/05/02 19:34:16;;;;;;;10.73;6.95;;;14.60;47.40;;;;;;5038759;28;20496;-69
2021/05/02 19:36:42;;;;;;;10.38;7.10;;;14.50;47.30;;;;;;5044036;28;20029;-69
2021/05/02 19:39:10;;;;;;;10.38;7.38;;;14.40;47.40;;;;;;5038730;28;20123;-68
2021/05/02 19:41:36;;;;;;;8.73;6.57;;;14.40;47.40;;;;;;5043427;28;20064;-69
2021/05/02 19:44:02;;;;;;;6.70;4.20;;;14.30;47.50;;;;;;5039306;28;20013;-68
2021/05/02 19:46:28;;;;;;;6.32;4.60;;;14.30;47.70;;;;;;5039001;28;20057;-68
2021/05/02 19:48:54;;;;;;;6.20;4.32;;;14.20;47.90;;;;;;5040784;28;20028;-68
2021/05/02 19:51:20;;;;;;;6.45;4.68;;;14.20;48.10;;;;;;5039113;28;20082;-70
2021/05/02 19:53:46;;;;;;;5.10;4.60;;;14.20;48.10;;;;;;5038152;28;20063;-69
2021/05/02 19:56:12;;;;;;;5.72;4.15;;;14.10;48.20;;;;;;5033884;28;20025;-69
2021/05/02 19:58:37;;;;;;;7.82;4.30;;;14.20;48.40;;;;;;5039256;28;20032;-69
2021/05/02 20:01:05;;;;;;;5.20;3.40;;;14.10;48.60;;;;;;5039372;28;20033;-67
2021/05/02 20:03:31;;;;;;;4.85;3.22;;;14.10;48.80;;;;;;5039177;28;20426;-68
2021/05/02 20:05:57;;;;;;;5.18;3.67;;;14.10;48.80;;;;;;5055074;28;20057;-68
2021/05/02 20:08:23;;;;;;;6.47;3.78;;;14.10;48.70;;;;;;5040703;28;20039;-67
2021/05/02 20:10:49;;;;;;;5.32;3.47;;;14.10;48.80;;;;;;5038155;28;20040;-67
2021/05/02 20:13:15;;;;;;;5.25;3.67;;;14.00;48.60;;;;;;5039320;28;20021;-68
2021/05/02 20:15:40;;;;;;;5.32;3.08;;;14.00;48.70;;;;;;5052678;28;20021;-68
2021/05/02 20:18:06;;;;;;;5.47;3.47;;;13.90;48.70;;;;;;5039345;28;20021;-68
2021/05/02 20:20:33;;;;;;;5.45;3.50;;;13.90;48.90;;;;;;5039914;28;20394;-67
2021/05/02 20:23:00;;;;;;;6.45;3.70;;;13.90;49.10;;;;;;5034171;28;20025;-67
2021/05/02 20:25:27;;;;;;;5.53;3.40;;;13.90;49.20;;;;;;5039111;28;20041;-67
2021/05/02 20:27:53;;;;;;;5.38;3.50;;;13.90;49.00;;;;;;5037512;28;20386;-69
2021/05/02 20:30:21;;;;;;;6.35;4.40;;;13.80;49.10;;;;;;5038434;28;20101;-67
2021/05/02 20:32:47;;;;;;;5.75;4.15;;;13.80;49.30;;;;;;5039435;28;20112;-67
2021/05/02 20:35:16;;;;;;;7.30;4.97;;;13.80;49.50;;;;;;5038836;28;20026;-67
2021/05/02 20:37:47;;;;;;;7.25;5.10;;;13.80;49.60;;;;;;5039423;28;20017;-67
2021/05/02 20:40:15;;;;;;;6.30;5.22;;;13.80;49.60;;;;;;5034184;28;20030;-67
2021/05/02 20:42:41;;;;;;;7.13;5.07;;;13.70;49.30;;;;;;5037169;28;20395;-67
2021/05/02 20:45:08;;;;;;;5.93;4.80;;;13.70;49.50;;;;;;5039001;28;20070;-68
2021/05/02 20:47:34;;;;;;;5.38;4.22;;;13.60;49.60;;;;;;5048960;28;20021;-68
2021/05/02 20:50:00;;;;;;;6.03;4.45;;;13.60;49.70;;;;;;5035354;28;20026;-68
2021/05/02 20:52:26;;;;;;;6.70;4.43;;;13.50;49.70;;;;;;5038090;28;20124;-68
2021/05/02 20:54:52;;;;;;;6.25;4.63;;;13.50;49.80;;;;;;5036514;28;20048;-70
2021/05/02 20:57:19;;;;;;;6.32;4.20;;;13.50;50.10;;;;;;5038255;28;20018;-68
2021/05/02 20:59:45;;;;;;;7.68;4.93;;;13.50;50.10;;;;;;5038493;28;20024;-68
2021/05/02 21:02:10;;;;;;;7.50;5.15;;;13.50;50.20;;;;;;5033710;28;20452;-68
2021/05/02 21:04:37;;;;;;;6.20;4.38;;;13.50;50.30;;;;;;5035142;28;20507;-68
2021/05/02 21:07:03;;;;;;;6.18;4.28;;;13.50;50.50;;;;;;5037668;28;20033;-68
2021/05/02 21:09:30;;;;;;;6.35;4.70;;;13.50;50.60;;;;;;5038085;28;20052;-68
2021/05/02 21:11:56;;;;;;;6.63;4.45;;;13.40;50.70;;;;;;5037781;28;20021;-68
2021/05/02 21:14:22;;;;;;;6.53;4.63;;;13.50;50.70;;;;;;5037492;28;20365;-68
2021/05/02 21:16:48;;;;;;;6.47;5.30;;;13.50;51.00;;;;;;5038276;28;20041;-68
2021/05/02 21:19:15;;;;;;;6.15;5.15;;;13.50;50.80;;;;;;5037155;28;20099;-68
2021/05/02 21:21:42;;;;;;;6.68;5.40;;;13.50;50.80;;;;;;5037997;28;20044;-68
2021/05/02 21:24:10;;;;;;;14.02;11.30;;;13.40;50.90;;;;;;5035758;28;20025;-68
2021/05/02 21:26:35;;;;;;;10.02;7.40;;;13.40;51.10;;;;;;5037481;28;20035;-69
2021/05/02 21:29:01;;;;;;;7.82;6.47;;;13.40;51.10;;;;;;5038254;28;20060;-68
2021/05/02 21:31:27;;;;;;;10.32;6.28;;;13.30;51.00;;;;;;5037429;28;20052;-68
2021/05/02 21:33:53;;;;;;;8.93;5.85;;;13.30;51.30;;;;;;5037603;28;20036;-68
2021/05/02 21:36:19;;;;;;;9.68;7.72;;;13.30;51.40;;;;;;5036255;28;20033;-68
2021/05/02 21:38:44;;;;;;;8.10;6.80;;;13.30;51.50;;;;;;5036365;28;20052;-68
2021/05/02 21:41:10;;;;;;;8.35;7.00;;;13.30;51.30;;;;;;5036752;28;20014;-68
2021/05/02 21:43:36;;;;;;;8.23;6.05;;;13.20;51.50;;;;;;5036981;28;20033;-68
2021/05/02 21:46:04;;;;;;;8.75;7.35;;;13.30;51.80;;;;;;5037746;28;20112;-68
2021/05/02 21:48:30;;;;;;;9.73;8.32;;;13.30;51.70;;;;;;5037737;28;20071;-68
2021/05/02 21:50:57;;;;;;;13.50;10.23;;;13.20;51.70;;;;;;5037018;28;20388;-68
2021/05/02 21:53:24;;;;;;;12.10;8.73;;;13.20;51.90;;;;;;5037355;28;20099;-68
2021/05/02 21:55:50;;;;;;;9.68;7.85;;;13.10;51.90;;;;;;5036351;28;20029;-68
2021/05/02 21:58:16;;;;;;;9.00;6.90;;;13.20;52.10;;;;;;5037232;28;20124;-68
2021/05/02 22:00:48;;;;;;;6.95;6.25;;;13.10;52.10;;;;;;5037470;28;20049;-68
2021/05/02 22:03:14;;;;;;;6.65;5.60;;;13.10;52.40;;;;;;5037828;28;20052;-68
2021/05/02 22:05:41;;;;;;;6.15;5.30;;;13.20;52.70;;;;;;5035963;28;20060;-68
2021/05/02 22:08:07;;;;;;;6.32;5.13;;;13.20;52.40;;;;;;5036730;28;20107;-69
2021/05/02 22:10:33;;;;;;;7.60;5.78;;;13.10;52.40;;;;;;5036717;28;20034;-68
2021/05/02 22:12:59;;;;;;;7.88;6.07;;;13.10;52.60;;;;;;5037623;28;20033;-69
2021/05/02 22:15:26;;;;;;;8.75;6.15;;;13.10;52.60;;;;;;5036002;28;20112;-68
2021/05/02 22:17:52;;;;;;;9.00;6.60;;;13.00;52.80;;;;;;5036233;28;20025;-69
2021/05/02 22:20:18;;;;;;;7.07;5.80;;;13.00;52.60;;;;;;5036198;28;20009;-69
2021/05/02 22:22:44;;;;;;;8.55;6.70;;;12.90;52.90;;;;;;5037103;28;20026;-69
2021/05/02 22:25:11;;;;;;;7.65;6.45;;;12.90;53.10;;;;;;5037376;28;20017;-69
2021/05/02 22:30:59;;;;;;;8.52;6.18;;;12.80;53.30;;;;;;5036988;28;20028;-69
2021/05/02 22:33:26;;;;;;;8.35;6.57;;;12.80;53.60;;;;;;5036732;28;20439;-69
2021/05/02 22:35:52;;;;;;;7.97;5.50;;;12.70;53.50;;;;;;5036885;28;20033;-69
2021/05/02 22:38:19;;;;;;;7.70;5.75;;;12.70;53.60;;;;;;5036402;28;20025;-69
2021/05/02 22:40:46;;;;;;;8.02;6.88;;;12.70;53.80;;;;;;5036273;28;20021;-69
2021/05/02 22:43:13;;;;;;;8.63;7.03;;;12.70;53.70;;;;;;5036948;28;20045;-69
2021/05/02 22:45:40;;;;;;;8.35;6.00;;;12.60;53.60;;;;;;5036677;28;20049;-69
2021/05/02 22:48:06;;;;;;;8.38;6.72;;;12.50;53.60;;;;;;5036775;28;20060;-69
2021/05/02 22:50:35;;;;;;;8.32;6.45;;;12.40;53.70;;;;;;5036751;28;20064;-69
2021/05/02 22:53:01;;;;;;;10.73;8.25;;;12.40;54.10;;;;;;5037129;28;20030;-69
2021/05/02 22:55:27;;;;;;;8.55;7.32;;;12.40;54.10;;;;;;5036715;28;20048;-69
2021/05/02 22:57:53;;;;;;;10.63;8.77;;;12.30;55.00;;;;;;5035931;28;20040;-69
2021/05/02 23:03:41;;;;;;;13.02;10.35;;;12.30;54.50;;;;;;5036508;28;20025;-69
2021/05/02 23:06:07;;;;;;;9.75;7.72;;;12.30;54.50;;;;;;5035091;28;20026;-69
2021/05/02 23:08:33;;;;;;;8.27;6.57;;;12.20;54.70;;;;;;5036926;28;20025;-69
2021/05/02 23:10:59;;;;;;;7.32;6.10;;;12.20;54.70;;;;;;5040908;28;20120;-69
2021/05/02 23:13:25;;;;;;;7.50;6.60;;;12.10;54.70;;;;;;5040423;28;20435;-68
2021/05/02 23:15:57;;;;;;;8.13;6.53;;;12.10;54.80;;;;;;5040494;28;20093;-69
2021/05/02 23:18:25;;;;;;;6.90;5.97;;;12.00;54.70;;;;;;5039477;28;20083;-68
2021/05/02 23:20:51;;;;;;;7.75;6.32;;;12.00;54.80;;;;;;5037878;28;20487;-69
2021/05/02 23:23:17;;;;;;;7.85;6.25;;;11.90;55.50;;;;;;5039822;28;20026;-70
2021/05/02 23:25:50;;;;;;;7.43;6.00;;;11.80;54.90;;;;;;5040663;28;20460;-70
2021/05/02 23:28:16;;;;;;;8.07;6.53;;;11.80;55.00;;;;;;5040666;28;20026;-70
2021/05/02 23:30:42;;;;;;;9.15;7.05;;;11.70;55.10;;;;;;5039097;28;20213;-68
2021/05/02 23:33:09;;;;;;;9.07;6.63;;;11.70;55.40;;;;;;5040564;28;20033;-68
2021/05/02 23:35:35;;;;;;;8.23;6.90;;;11.70;55.30;;;;;;5034431;28;20108;-68
2021/05/02 23:38:03;;;;;;;8.30;6.60;;;11.60;55.50;;;;;;5036881;28;20152;-68
2021/05/02 23:40:29;;;;;;;9.98;7.32;;;11.60;55.70;;;;;;5037968;28;20486;-68
2021/05/02 23:42:54;;;;;;;9.20;6.93;;;11.60;55.80;;;;;;5040280;28;20025;-68
2021/05/02 23:45:20;;;;;;;8.43;7.30;;;11.50;55.90;;;;;;5040023;28;20120;-68
2021/05/02 23:47:47;;;;;;;9.32;7.03;;;11.60;56.30;;;;;;5040030;28;20029;-68
2021/05/02 23:50:13;;;;;;;9.82;6.93;;;11.60;56.30;;;;;;5039366;28;20033;-68
2021/05/02 23:52:39;;;;;;;8.68;7.13;;;11.50;56.30;;;;;;5040094;28;20048;-68
2021/05/02 23:55:06;;;;;;;7.85;6.53;;;11.50;56.40;;;;;;5039700;28;20014;-68
2021/05/02 23:57:33;;;;;;;8.48;7.00;;;11.50;56.30;;;;;;5039820;28;20026;-68
2021/05/02 23:59:59;;;;;;;7.85;6.97;;;11.50;56.30;;;;;;5039781;28;20122;-68
